Time;durP1;ratioP1;P1;durP2;ratioP2;P2;SDS_P1;SDS_P2;PMS_P1;PMS_P2;Temp;Humidity;BMP_temperature;BMP_pressure;BME280_temperature;BME280_humidity;BME280_pressure;Samples;Min_cycle;Max_cycle;Signal;HPM_P1;HPM_P2
2023/07/01 00:00:07;;;;;;;8.93;4.10;;;;;;;15.36;100.00;100727.63;5014107;28;20105;-77
2023/07/01 00:02:33;;;;;;;9.95;4.10;;;;;;;15.31;100.00;100724.72;5015331;28;20048;-77
2023/07/01 00:04:59;;;;;;;12.30;4.10;;;;;;;15.29;100.00;100731.41;5015620;28;20046;-81
2023/07/01 00:07:25;;;;;;;12.38;4.38;;;;;;;15.32;100.00;100728.25;5013206;28;20236;-77
2023/07/01 00:09:50;;;;;;;8.02;4.05;;;;;;;15.26;100.00;100734.56;5015986;28;20053;-77
2023/07/01 00:12:16;;;;;;;6.50;4.03;;;;;;;15.23;100.00;100719.56;5013995;28;20386;-76
2023/07/01 00:14:41;;;;;;;15.55;4.38;;;;;;;15.27;100.00;100717.22;5012640;28;20091;-78
2023/07/01 00:17:09;;;;;;;12.70;4.18;;;;;;;15.29;100.00;100713.25;5012982;28;20038;-77
2023/07/01 00:19:35;;;;;;;17.25;4.90;;;;;;;15.24;100.00;100709.53;5015522;28;20030;-78
2023/07/01 00:22:02;;;;;;;11.02;4.13;;;;;;;15.31;100.00;100694.06;4996071;28;20026;-77
2023/07/01 00:24:28;;;;;;;14.45;4.43;;;;;;;15.29;100.00;100698.88;5002009;28;20168;-75
2023/07/01 00:26:53;;;;;;;14.75;4.88;;;;;;;15.32;100.00;100691.16;5024055;28;20354;-75
2023/07/01 00:29:19;;;;;;;11.00;4.40;;;;;;;15.34;100.00;100696.34;5016555;28;20057;-76
2023/07/01 00:31:44;;;;;;;10.93;4.90;;;;;;;15.33;100.00;100684.69;5015703;28;20037;-75
2023/07/01 00:34:10;;;;;;;8.30;4.90;;;;;;;15.32;100.00;100685.75;5016071;28;20025;-75
2023/07/01 00:36:35;;;;;;;14.15;6.18;;;;;;;15.40;100.00;100681.91;5014828;28;20097;-76
2023/07/01 00:39:03;;;;;;;12.63;5.32;;;;;;;15.38;100.00;100694.88;5014966;28;20028;-76
2023/07/01 00:41:28;;;;;;;15.40;5.72;;;;;;;15.37;100.00;100676.94;5015473;28;20022;-76
2023/07/01 00:43:54;;;;;;;10.52;5.65;;;;;;;15.35;100.00;100679.88;5019140;28;20037;-76
2023/07/01 00:46:21;;;;;;;12.30;5.53;;;;;;;15.39;100.00;100685.69;5016895;28;20101;-76
2023/07/01 00:48:47;;;;;;;8.63;5.28;;;;;;;15.37;100.00;100682.34;5003089;28;20069;-76
2023/07/01 00:51:12;;;;;;;14.27;5.53;;;;;;;15.34;100.00;100671.94;4999049;28;20068;-77
2023/07/01 00:53:39;;;;;;;14.05;6.55;;;;;;;15.40;100.00;100678.38;5016520;28;20034;-77
2023/07/01 00:56:05;;;;;;;14.25;6.72;;;;;;;15.29;100.00;100669.06;4996348;28;20054;-77
2023/07/01 00:58:30;;;;;;;13.55;6.60;;;;;;;15.36;100.00;100680.69;4996930;28;20401;-77
2023/07/01 01:00:57;;;;;;;11.15;6.70;;;;;;;15.33;100.00;100659.44;5011833;28;20373;-77
2023/07/01 01:03:48;;;;;;;14.02;6.45;;;;;;;15.32;100.00;100657.75;4995177;28;20095;-77
2023/07/01 01:06:17;;;;;;;15.30;6.95;;;;;;;15.35;100.00;100662.78;4995365;28;20539;-78
2023/07/01 01:08:52;;;;;;;10.57;6.53;;;;;;;15.37;100.00;100647.09;4995226;28;20417;-77
2023/07/01 01:11:18;;;;;;;13.13;6.55;;;;;;;15.32;100.00;100652.34;4996764;28;20475;-77
2023/07/01 01:13:44;;;;;;;16.45;7.95;;;;;;;15.32;100.00;100642.34;4995563;28;20034;-76
2023/07/01 01:16:10;;;;;;;17.90;7.78;;;;;;;15.31;100.00;100635.25;4994838;28;20216;-76
2023/07/01 01:18:36;;;;;;;20.73;7.55;;;;;;;15.31;100.00;100632.53;4995384;28;20041;-75
2023/07/01 01:21:02;;;;;;;16.20;8.27;;;;;;;15.29;100.00;100631.91;4994239;28;20015;-77
2023/07/01 01:23:36;;;;;;;14.98;7.95;;;;;;;15.28;100.00;100618.59;4995340;28;20078;-78
2023/07/01 01:26:10;;;;;;;13.40;7.93;;;;;;;15.27;100.00;100633.19;4996346;28;20061;-77
2023/07/01 01:28:35;;;;;;;14.85;8.20;;;;;;;15.30;100.00;100621.94;4992391;28;20031;-76
2023/07/01 01:31:01;;;;;;;14.25;8.32;;;;;;;15.31;100.00;100618.16;4995783;28;20053;-76
2023/07/01 01:33:27;;;;;;;16.23;9.23;;;;;;;15.33;100.00;100613.34;4993919;28;20030;-75
2023/07/01 01:35:58;;;;;;;14.40;8.85;;;;;;;15.34;100.00;100607.69;4994219;28;20081;-77
2023/07/01 01:38:27;;;;;;;15.02;8.75;;;;;;;15.35;100.00;100598.53;4993242;28;20030;-77
2023/07/01 01:40:57;;;;;;;20.50;9.00;;;;;;;15.34;100.00;100607.69;4995485;28;20196;-77
2023/07/01 01:43:46;;;;;;;18.00;8.75;;;;;;;15.34;100.00;100601.44;4992639;28;20022;-77
2023/07/01 01:46:13;;;;;;;14.50;8.70;;;;;;;15.33;100.00;100603.31;4994163;28;20041;-76
2023/07/01 01:48:38;;;;;;;14.63;8.98;;;;;;;15.35;100.00;100611.25;4993613;28;20018;-76
2023/07/01 01:51:04;;;;;;;18.70;9.25;;;;;;;15.41;100.00;100607.66;4993571;28;20481;-75
2023/07/01 01:53:32;;;;;;;15.63;8.95;;;;;;;15.44;100.00;100606.38;4991316;28;20037;-76
2023/07/01 01:55:57;;;;;;;13.75;8.25;;;;;;;15.44;100.00;100590.94;4998053;28;20504;-75
2023/07/01 01:58:23;;;;;;;12.27;9.02;;;;;;;15.42;100.00;100598.47;4997375;28;20030;-76
2023/07/01 02:00:48;;;;;;;13.50;9.98;;;;;;;15.35;100.00;100587.69;4997006;28;20072;-76
2023/07/01 02:03:14;;;;;;;16.80;9.88;;;;;;;15.40;100.00;100587.00;4996138;28;20112;-76
2023/07/01 02:05:39;;;;;;;12.98;10.52;;;;;;;15.41;100.00;100580.53;5015773;28;20053;-78
2023/07/01 02:08:05;;;;;;;19.00;11.25;;;;;;;15.43;100.00;100594.72;5015259;28;20068;-76
2023/07/01 02:10:32;;;;;;;16.73;11.55;;;;;;;15.40;100.00;100581.56;5015178;28;20022;-76
2023/07/01 02:12:58;;;;;;;16.38;11.50;;;;;;;15.41;100.00;100579.72;5017078;28;20481;-76
2023/07/01 02:15:23;;;;;;;14.75;10.60;;;;;;;15.43;100.00;100577.59;5014517;28;20132;-77
2023/07/01 02:17:49;;;;;;;19.80;12.23;;;;;;;15.40;100.00;100573.44;5016021;28;20108;-77
2023/07/01 02:20:14;;;;;;;17.35;12.38;;;;;;;15.42;100.00;100570.50;5013709;28;20037;-76
2023/07/01 02:22:39;;;;;;;16.42;11.77;;;;;;;15.44;100.00;100576.56;5013755;28;20049;-76
2023/07/01 02:25:06;;;;;;;16.23;12.07;;;;;;;15.42;100.00;100565.91;5014825;28;20046;-76
2023/07/01 02:27:32;;;;;;;18.50;12.13;;;;;;;15.43;100.00;100567.59;5014817;28;20045;-76
2023/07/01 02:29:58;;;;;;;14.32;11.75;;;;;;;15.41;100.00;100574.28;5014716;28;20037;-77
2023/07/01 02:32:24;;;;;;;22.33;13.75;;;;;;;15.40;100.00;100572.63;5014056;28;20037;-79
2023/07/01 02:34:49;;;;;;;19.20;12.57;;;;;;;15.42;100.00;100565.91;5012488;28;20026;-75
2023/07/01 02:37:15;;;;;;;19.77;12.93;;;;;;;15.41;100.00;100569.69;5013218;28;20040;-76
2023/07/01 02:39:42;;;;;;;20.40;13.73;;;;;;;15.36;100.00;100567.63;5013230;28;20093;-77
2023/07/01 02:42:07;;;;;;;16.00;11.83;;;;;;;15.39;100.00;100569.06;5014935;28;20029;-78
2023/07/01 02:44:33;;;;;;;20.83;12.50;;;;;;;15.40;100.00;100567.19;5014726;28;20030;-77
2023/07/01 02:46:59;;;;;;;17.15;12.10;;;;;;;15.40;100.00;100559.88;5015967;28;20091;-77
2023/07/01 02:49:25;;;;;;;17.85;12.05;;;;;;;15.43;100.00;100562.19;5012461;28;20041;-76
2023/07/01 02:51:50;;;;;;;19.55;11.52;;;;;;;15.39;100.00;100560.94;5012609;28;20029;-77
2023/07/01 02:54:16;;;;;;;15.98;11.38;;;;;;;15.42;100.00;100552.34;5013960;28;20029;-77
2023/07/01 02:56:41;;;;;;;14.65;11.80;;;;;;;15.40;100.00;100551.75;5014517;28;20042;-77
2023/07/01 02:59:06;;;;;;;19.85;11.50;;;;;;;15.40;100.00;100553.63;5014558;28;20024;-77
2023/07/01 03:01:32;;;;;;;14.05;10.98;;;;;;;15.42;100.00;100548.81;5013791;28;20136;-76
2023/07/01 03:03:57;;;;;;;19.25;11.50;;;;;;;15.41;100.00;100548.00;5014220;28;20404;-77
2023/07/01 03:06:22;;;;;;;15.35;11.63;;;;;;;15.39;100.00;100555.53;4997875;28;20030;-78
2023/07/01 03:08:48;;;;;;;17.60;11.77;;;;;;;15.39;100.00;100543.84;5015284;28;20042;-78
2023/07/01 03:11:13;;;;;;;16.83;11.88;;;;;;;15.40;100.00;100546.31;5017001;28;20120;-78
2023/07/01 03:13:39;;;;;;;14.90;11.57;;;;;;;15.40;100.00;100534.66;5018328;28;20025;-77
2023/07/01 03:16:06;;;;;;;18.00;12.55;;;;;;;15.40;100.00;100529.22;5017583;28;20058;-76
2023/07/01 03:18:32;;;;;;;21.73;13.20;;;;;;;15.43;100.00;100534.19;5015512;28;20022;-79
2023/07/01 03:21:00;;;;;;;15.38;12.65;;;;;;;15.40;100.00;100527.34;5014429;28;20030;-76
2023/07/01 03:23:27;;;;;;;16.35;13.10;;;;;;;15.44;100.00;100520.44;5013430;28;20091;-77
2023/07/01 03:25:52;;;;;;;18.98;12.75;;;;;;;15.44;100.00;100525.03;5015583;28;20030;-77
2023/07/01 03:28:17;;;;;;;12.40;11.10;;;;;;;15.42;100.00;100522.53;5018054;28;20098;-77
2023/07/01 03:30:43;;;;;;;14.02;11.57;;;;;;;15.45;100.00;100527.50;5019085;28;20557;-77
2023/07/01 03:33:10;;;;;;;15.70;11.20;;;;;;;15.48;100.00;100521.66;5013495;28;20056;-77
2023/07/01 03:35:35;;;;;;;14.63;10.40;;;;;;;15.48;100.00;100515.38;5012981;28;20105;-77
2023/07/01 03:38:00;;;;;;;15.52;9.70;;;;;;;15.48;100.00;100516.25;5012721;28;20117;-77
2023/07/01 03:40:27;;;;;;;15.85;11.15;;;;;;;15.53;100.00;100513.69;5011729;28;20121;-77
2023/07/01 03:42:53;;;;;;;16.48;10.70;;;;;;;15.57;100.00;100506.75;5011055;28;20476;-77
2023/07/01 03:45:18;;;;;;;14.38;10.13;;;;;;;15.59;100.00;100501.94;5008789;28;20113;-77
2023/07/01 03:47:45;;;;;;;12.48;9.95;;;;;;;15.60;100.00;100505.47;5013632;28;20030;-78
2023/07/01 03:50:11;;;;;;;12.82;10.35;;;;;;;15.61;100.00;100498.16;5011822;28;20026;-77
2023/07/01 03:52:38;;;;;;;11.82;10.32;;;;;;;15.65;100.00;100499.38;5009131;28;20495;-77
2023/07/01 03:55:08;;;;;;;12.30;10.10;;;;;;;15.65;100.00;100500.22;5010218;28;20389;-77
2023/07/01 03:57:34;;;;;;;11.75;9.35;;;;;;;15.65;100.00;100494.78;5013599;28;20493;-77
2023/07/01 04:00:00;;;;;;;12.75;9.73;;;;;;;15.68;100.00;100486.19;5015992;28;20030;-77
2023/07/01 04:02:25;;;;;;;12.48;10.10;;;;;;;15.66;100.00;100490.19;4999103;28;20033;-76
2023/07/01 04:04:51;;;;;;;13.32;10.07;;;;;;;15.68;100.00;100485.38;5016716;28;20392;-78
2023/07/01 04:07:17;;;;;;;15.40;10.55;;;;;;;15.67;100.00;100495.41;5017282;28;20067;-77
2023/07/01 04:09:43;;;;;;;12.40;10.10;;;;;;;15.69;100.00;100478.91;5013967;28;20547;-77
2023/07/01 04:12:09;;;;;;;10.55;9.25;;;;;;;15.75;100.00;100480.75;5007922;28;20030;-77
2023/07/01 04:14:34;;;;;;;11.43;10.02;;;;;;;15.74;100.00;100482.59;5013334;28;20022;-77
2023/07/01 04:17:00;;;;;;;13.23;9.27;;;;;;;15.75;100.00;100475.31;5013352;28;20026;-76
2023/07/01 04:19:25;;;;;;;11.20;9.57;;;;;;;15.77;100.00;100470.47;5014916;28;20029;-77
2023/07/01 04:21:50;;;;;;;12.55;9.02;;;;;;;15.79;100.00;100473.78;4998057;28;20046;-76
2023/07/01 04:24:16;;;;;;;11.88;8.70;;;;;;;15.78;100.00;100469.44;5004830;28;20555;-76
2023/07/01 04:26:43;;;;;;;10.60;9.00;;;;;;;15.80;100.00;100470.03;5013007;28;20076;-77
2023/07/01 04:29:09;;;;;;;12.68;9.13;;;;;;;15.83;100.00;100469.59;5013832;28;20041;-78
2023/07/01 04:31:35;;;;;;;12.48;8.38;;;;;;;15.84;100.00;100470.41;5013575;28;20481;-78
2023/07/01 04:34:00;;;;;;;9.77;8.38;;;;;;;15.82;100.00;100467.09;5014343;28;20042;-79
2023/07/01 04:36:25;;;;;;;11.65;8.95;;;;;;;15.85;100.00;100456.63;5018569;28;20805;-77
2023/07/01 04:38:51;;;;;;;11.40;8.50;;;;;;;15.86;100.00;100469.13;5017766;28;20449;-79
2023/07/01 04:41:17;;;;;;;14.20;8.73;;;;;;;15.87;100.00;100470.78;5014175;28;20029;-79
2023/07/01 04:43:42;;;;;;;11.77;9.32;;;;;;;15.90;100.00;100469.50;5013865;28;20041;-81
2023/07/01 04:46:08;;;;;;;9.77;8.57;;;;;;;15.89;100.00;100474.09;5014764;28;20026;-79
2023/07/01 04:48:33;;;;;;;12.02;9.30;;;;;;;15.91;100.00;100466.56;5014958;28;20025;-78
2023/07/01 04:50:59;;;;;;;12.20;9.43;;;;;;;15.89;100.00;100459.72;5013845;28;20033;-79
2023/07/01 04:53:24;;;;;;;12.43;10.13;;;;;;;15.91;100.00;100458.44;5017020;28;20049;-78
2023/07/01 04:55:50;;;;;;;13.38;10.07;;;;;;;15.91;100.00;100455.72;5017090;28;20493;-78
2023/07/01 04:58:15;;;;;;;11.75;9.60;;;;;;;15.91;100.00;100455.72;5016191;28;20033;-77
2023/07/01 05:00:41;;;;;;;13.35;10.20;;;;;;;15.91;100.00;100457.59;5012037;28;20534;-77
2023/07/01 05:03:07;;;;;;;12.88;10.40;;;;;;;15.91;100.00;100449.47;5003060;28;20104;-77
2023/07/01 05:05:32;;;;;;;14.25;9.90;;;;;;;15.93;100.00;100453.63;4994742;28;20076;-77
2023/07/01 05:07:58;;;;;;;13.32;11.20;;;;;;;15.96;100.00;100453.16;4993227;28;20031;-77
2023/07/01 05:10:23;;;;;;;12.73;10.15;;;;;;;15.97;100.00;100448.56;4994062;28;20153;-76
2023/07/01 05:12:49;;;;;;;21.63;9.85;;;;;;;15.97;100.00;100454.78;4976955;28;20034;-77
2023/07/01 05:15:15;;;;;;;15.30;10.45;;;;;;;15.96;100.00;100446.91;5005970;28;20037;-77
2023/07/01 05:17:40;;;;;;;11.85;9.27;;;;;;;15.98;100.00;100439.34;5014954;28;20029;-77
2023/07/01 05:20:06;;;;;;;11.63;9.10;;;;;;;16.02;100.00;100435.94;5015834;28;20120;-77
2023/07/01 05:22:32;;;;;;;10.10;8.77;;;;;;;16.02;100.00;100443.28;5014054;28;20030;-77
2023/07/01 05:24:57;;;;;;;10.63;8.75;;;;;;;16.02;100.00;100446.81;5004040;28;20061;-80
2023/07/01 05:27:23;;;;;;;9.45;7.60;;;;;;;16.02;100.00;100452.22;4998103;28;20101;-78
2023/07/01 05:29:48;;;;;;;10.05;7.93;;;;;;;15.99;100.00;100436.41;5001779;28;20037;-77
2023/07/01 05:32:13;;;;;;;9.43;7.55;;;;;;;16.00;100.00;100443.47;5010816;28;20026;-78
2023/07/01 05:34:39;;;;;;;10.35;6.93;;;;;;;16.02;100.00;100451.41;4996833;28;20504;-77
2023/07/01 05:37:04;;;;;;;12.15;7.57;;;;;;;16.05;100.00;100450.13;4995730;28;20105;-78
2023/07/01 05:39:30;;;;;;;9.60;7.88;;;;;;;16.09;100.00;100435.88;4995855;28;20355;-78
2023/07/01 05:41:56;;;;;;;8.85;7.05;;;;;;;16.13;100.00;100438.94;4997169;28;20043;-77
2023/07/01 05:44:21;;;;;;;10.35;7.57;;;;;;;16.09;100.00;100438.59;5006354;28;20419;-78
2023/07/01 05:46:47;;;;;;;10.68;7.90;;;;;;;16.08;100.00;100433.38;4998416;28;20041;-77
2023/07/01 05:49:12;;;;;;;10.35;7.55;;;;;;;16.06;100.00;100435.50;5012491;28;20412;-78
2023/07/01 05:51:38;;;;;;;8.52;6.78;;;;;;;16.05;100.00;100433.84;5005422;28;20057;-77
2023/07/01 05:54:03;;;;;;;9.00;6.55;;;;;;;16.09;100.00;100440.44;5008444;28;20386;-78
2023/07/01 05:56:31;;;;;;;8.18;6.75;;;;;;;16.10;100.00;100431.28;5014799;28;20081;-77
2023/07/01 05:58:57;;;;;;;10.32;7.68;;;;;;;16.16;100.00;100433.06;5012813;28;20354;-77
2023/07/01 06:01:22;;;;;;;8.43;7.07;;;;;;;16.19;100.00;100424.47;5012634;28;20049;-76
2023/07/01 06:03:48;;;;;;;10.00;6.68;;;;;;;16.23;100.00;100436.53;5011878;28;20342;-77
2023/07/01 06:06:13;;;;;;;9.57;6.32;;;;;;;16.26;100.00;100438.78;5011808;28;20098;-77
2023/07/01 06:08:38;;;;;;;7.90;5.97;;;;;;;16.16;100.00;100431.16;5013671;28;20088;-77
2023/07/01 06:11:04;;;;;;;10.13;6.75;;;;;;;16.19;100.00;100438.03;5013391;28;20025;-77
2023/07/01 06:13:29;;;;;;;7.45;6.43;;;;;;;16.19;100.00;100444.31;5013199;28;20042;-77
2023/07/01 06:15:54;;;;;;;7.72;6.38;;;;;;;16.17;100.00;100440.16;5015174;28;20030;-79
2023/07/01 06:18:20;;;;;;;6.82;5.53;;;;;;;16.19;100.00;100435.31;5005455;28;20064;-77
2023/07/01 06:20:45;;;;;;;6.88;5.65;;;;;;;16.23;100.00;100440.06;5012316;28;20030;-76
2023/07/01 06:23:11;;;;;;;6.43;5.22;;;;;;;16.22;100.00;100434.88;5012605;28;20042;-79
2023/07/01 06:25:36;;;;;;;6.60;5.10;;;;;;;16.28;100.00;100438.56;5011563;28;20029;-77
2023/07/01 06:28:02;;;;;;;5.80;5.20;;;;;;;16.31;100.00;100438.91;5010793;28;20034;-76
2023/07/01 06:30:27;;;;;;;5.47;4.70;;;;;;;16.30;100.00;100442.72;5012745;28;20422;-77
2023/07/01 06:32:52;;;;;;;5.78;5.00;;;;;;;16.34;100.00;100441.19;5012319;28;20030;-77
2023/07/01 06:35:18;;;;;;;10.43;5.25;;;;;;;16.40;100.00;100443.00;5011285;28;20037;-77
2023/07/01 06:37:43;;;;;;;6.22;4.90;;;;;;;16.43;100.00;100437.09;5011585;28;20046;-77
2023/07/01 06:40:09;;;;;;;3.55;3.25;;;;;;;16.48;100.00;100441.00;5010815;28;20040;-76
2023/07/01 06:42:35;;;;;;;5.10;4.10;;;;;;;16.49;100.00;100439.94;5011643;28;20018;-77
2023/07/01 06:45:01;;;;;;;5.13;3.83;;;;;;;16.50;100.00;100441.59;5013558;28;20029;-77
2023/07/01 06:47:26;;;;;;;5.25;3.92;;;;;;;16.50;100.00;100442.41;5012422;28;20018;-77
2023/07/01 06:49:51;;;;;;;4.80;3.80;;;;;;;16.53;100.00;100446.56;5013637;28;20120;-76
2023/07/01 06:52:17;;;;;;;3.92;3.20;;;;;;;16.52;100.00;100436.75;5013451;28;20026;-77
2023/07/01 06:54:42;;;;;;;4.22;3.50;;;;;;;16.53;100.00;100428.38;5014160;28;20101;-77
2023/07/01 06:57:07;;;;;;;3.28;2.97;;;;;;;16.56;100.00;100432.50;5012138;28;20049;-77
2023/07/01 06:59:33;;;;;;;6.80;3.22;;;;;;;16.63;100.00;100430.53;5013651;28;20410;-76
2023/07/01 07:01:58;;;;;;;5.30;3.08;;;;;;;16.69;100.00;100429.59;4981636;28;20072;-77
2023/07/01 07:04:23;;;;;;;3.65;2.88;;;;;;;16.67;100.00;100429.03;5015175;28;20473;-77
2023/07/01 07:06:49;;;;;;;3.10;2.72;;;;;;;16.73;100.00;100425.38;5010761;28;20070;-77
2023/07/01 07:09:15;;;;;;;2.90;2.70;;;;;;;16.80;100.00;100425.31;5012930;28;20029;-77
2023/07/01 07:11:41;;;;;;;2.90;2.60;;;;;;;16.85;100.00;100423.53;5013004;28;20405;-77
2023/07/01 07:14:06;;;;;;;2.92;2.03;;;;;;;16.79;100.00;100426.34;4995434;28;20045;-77
2023/07/01 07:16:34;;;;;;;2.35;2.15;;;;;;;16.84;100.00;100423.75;5012271;28;20030;-77
2023/07/01 07:18:59;;;;;;;;;;;;;;;16.78;100.00;100425.53;5011622;28;20018;-77
2023/07/01 07:21:25;;;;;;;3.63;1.90;;;;;;;16.76;100.00;100430.31;5012890;28;20279;-77
2023/07/01 07:23:50;;;;;;;5.28;2.00;;;;;;;16.80;100.00;100426.13;5012525;28;20026;-77
2023/07/01 07:26:15;;;;;;;2.53;2.20;;;;;;;16.79;100.00;100421.72;5013150;28;20034;-77
2023/07/01 07:28:41;;;;;;;3.38;2.15;;;;;;;16.85;100.00;100422.69;5012726;28;20049;-77
2023/07/01 07:31:06;;;;;;;2.63;1.98;;;;;;;16.86;100.00;100430.63;4995515;28;20049;-76
2023/07/01 07:33:31;;;;;;;2.38;2.13;;;;;;;16.92;100.00;100428.84;5010724;28;20030;-77
2023/07/01 07:35:57;;;;;;;1.83;1.73;;;;;;;16.89;100.00;100422.00;5012413;28;20114;-77
2023/07/01 07:38:22;;;;;;;5.68;1.75;;;;;;;16.87;100.00;100426.81;5011845;28;20030;-77
2023/07/01 07:40:47;;;;;;;2.10;1.58;;;;;;;16.88;100.00;100423.06;5013748;28;20026;-77
2023/07/01 07:43:13;;;;;;;1.55;1.42;;;;;;;16.89;100.00;100423.88;5016347;28;20113;-76
2023/07/01 07:45:38;;;;;;;3.13;1.55;;;;;;;16.98;100.00;100427.09;5013016;28;20034;-77
2023/07/01 07:48:05;;;;;;;2.50;1.40;;;;;;;17.03;100.00;100427.22;5013288;28;20033;-78
2023/07/01 07:50:30;;;;;;;3.10;1.95;;;;;;;17.07;100.00;100422.97;5010445;28;20084;-77
2023/07/01 07:52:56;;;;;;;4.53;1.75;;;;;;;17.13;100.00;100424.75;5013543;28;20041;-77
2023/07/01 07:55:21;;;;;;;1.63;1.30;;;;;;;17.21;100.00;100424.38;5015305;28;20105;-77
2023/07/01 07:57:46;;;;;;;1.85;1.05;;;;;;;17.10;100.00;100422.50;5015860;28;20046;-77
2023/07/01 08:00:12;;;;;;;1.33;1.00;;;;;;;17.10;100.00;100419.78;5016749;28;20026;-77
2023/07/01 08:02:42;;;;;;;2.90;1.08;;;;;;;17.12;100.00;100417.66;5017824;28;20034;-77
2023/07/01 08:05:08;;;;;;;3.08;0.98;;;;;;;17.13;100.00;100413.03;5018512;28;20026;-77
2023/07/01 08:07:33;;;;;;;1.13;0.85;;;;;;;17.10;100.00;100417.06;5019066;28;20141;-77
2023/07/01 08:09:59;;;;;;;2.35;1.10;;;;;;;17.14;100.00;100412.81;5017584;28;20473;-77
2023/07/01 08:12:24;;;;;;;3.80;1.10;;;;;;;17.20;100.00;100411.88;5017527;28;20084;-77
2023/07/01 08:14:49;;;;;;;2.42;1.00;;;;;;;17.26;100.00;100413.63;4998746;28;20033;-76
2023/07/01 08:17:15;;;;;;;4.57;1.65;;;;;;;17.19;100.00;100418.34;5017360;28;20026;-77
2023/07/01 08:19:40;;;;;;;3.28;1.23;;;;;;;17.29;100.00;100423.22;5015193;28;20073;-76
2023/07/01 08:22:06;;;;;;;4.45;1.50;;;;;;;17.20;100.00;100413.75;5014904;28;20030;-76
2023/07/01 08:24:31;;;;;;;4.57;1.65;;;;;;;17.17;100.00;100420.50;5013682;28;20595;-77
2023/07/01 08:26:56;;;;;;;6.90;1.95;;;;;;;17.21;100.00;100416.22;5014870;28;20030;-77
2023/07/01 08:29:22;;;;;;;4.45;1.95;;;;;;;17.24;100.00;100420.38;5014259;28;20077;-76
2023/07/01 08:31:47;;;;;;;6.93;2.65;;;;;;;17.18;100.00;100418.59;5015409;28;20049;-77
2023/07/01 08:34:12;;;;;;;8.40;2.60;;;;;;;17.19;100.00;100412.91;5015296;28;20120;-77
2023/07/01 08:36:38;;;;;;;6.10;2.90;;;;;;;17.24;100.00;100415.75;5015394;28;20032;-77
2023/07/01 08:39:03;;;;;;;9.80;3.15;;;;;;;17.23;100.00;100405.13;5014932;28;20037;-76
2023/07/01 08:41:30;;;;;;;3.80;2.50;;;;;;;17.22;100.00;100417.91;5016264;28;20033;-77
2023/07/01 08:43:56;;;;;;;8.18;3.60;;;;;;;17.33;100.00;100422.50;4997439;28;20460;-77
2023/07/01 08:46:23;;;;;;;4.82;3.20;;;;;;;17.41;100.00;100415.06;4997301;28;20111;-77
2023/07/01 08:48:49;;;;;;;4.63;2.95;;;;;;;17.41;100.00;100404.19;5014988;28;20052;-76
2023/07/01 08:51:28;;;;;;;9.38;3.95;;;;;;;17.35;100.00;100416.81;5015264;28;20551;-77
2023/07/01 08:53:53;;;;;;;8.95;4.32;;;;;;;17.38;100.00;100410.06;4998403;28;20029;-78
2023/07/01 08:56:20;;;;;;;6.07;4.38;;;;;;;17.37;100.00;100408.44;4998469;28;20064;-77
2023/07/01 08:58:46;;;;;;;8.88;5.00;;;;;;;17.34;100.00;100401.56;5016545;28;20030;-77
2023/07/01 09:01:12;;;;;;;17.63;6.47;;;;;;;17.45;100.00;100399.91;5014973;28;20038;-77
2023/07/01 09:03:38;;;;;;;12.15;6.05;;;;;;;17.53;100.00;100402.25;5015180;28;20410;-77
2023/07/01 09:06:05;;;;;;;14.55;6.97;;;;;;;17.59;100.00;100404.03;4999554;28;20410;-77
2023/07/01 09:08:33;;;;;;;16.83;7.70;;;;;;;17.67;100.00;100408.28;5021473;28;20436;-75
2023/07/01 09:10:58;;;;;;;21.75;8.75;;;;;;;17.74;100.00;100407.06;5015422;28;20383;-76
2023/07/01 09:13:25;;;;;;;18.73;8.43;;;;;;;17.77;100.00;100408.47;5015460;28;20109;-76
2023/07/01 09:15:50;;;;;;;17.48;8.60;;;;;;;17.71;100.00;100404.81;5014684;28;20062;-76
2023/07/01 09:18:22;;;;;;;22.27;8.30;;;;;;;17.77;100.00;100403.03;5013825;28;20049;-77
2023/07/01 09:20:52;;;;;;;26.98;9.10;;;;;;;17.70;100.00;100400.47;5016845;28;20107;-77
2023/07/01 09:23:31;;;;;;;17.08;8.00;;;;;;;17.71;100.00;100396.66;5015194;28;20102;-76
2023/07/01 09:26:10;;;;;;;15.13;7.63;;;;;;;17.73;100.00;100401.88;5014205;28;20171;-77
2023/07/01 09:28:36;;;;;;;24.02;7.60;;;;;;;17.80;100.00;100401.75;5014530;28;20484;-77
2023/07/01 09:31:07;;;;;;;25.40;8.05;;;;;;;17.80;100.00;100391.72;5014813;28;20057;-77
2023/07/01 09:33:36;;;;;;;19.95;8.13;;;;;;;17.75;100.00;100388.88;5014710;28;20061;-77
2023/07/01 09:36:02;;;;;;;19.23;7.28;;;;;;;17.74;100.00;100392.63;5014976;28;20415;-77
2023/07/01 09:38:32;;;;;;;18.73;7.97;;;;;;;17.71;100.00;100387.69;4997800;28;20440;-78
2023/07/01 09:41:18;;;;;;;15.60;7.20;;;;;;;17.75;100.00;100383.41;5000677;28;20068;-77
2023/07/01 09:43:44;;;;;;;18.00;6.80;;;;;;;17.83;100.00;100383.06;5017224;28;20056;-80
2023/07/01 09:46:09;;;;;;;20.40;7.32;;;;;;;17.89;100.00;100384.81;5019474;28;20065;-79
2023/07/01 09:48:36;;;;;;;23.13;7.13;;;;;;;17.92;100.00;100380.78;5014753;28;20029;-80
2023/07/01 09:51:05;;;;;;;19.30;6.80;;;;;;;17.86;100.00;100384.50;5022006;28;20018;-80
2023/07/01 09:53:35;;;;;;;17.75;6.05;;;;;;;17.89;100.00;100379.38;5018210;28;20033;-80
2023/07/01 09:56:03;;;;;;;19.88;6.00;;;;;;;17.80;100.00;100372.66;5020630;28;20046;-83
2023/07/01 09:58:29;;;;;;;19.20;6.65;;;;;;;17.88;100.00;100371.47;5017863;28;20014;-79
2023/07/01 10:00:57;;;;;;;16.27;5.85;;;;;;;17.97;100.00;100378.16;5001732;28;20053;-81
2023/07/01 10:03:23;;;;;;;20.42;5.85;;;;;;;17.84;100.00;100376.53;5020651;28;20121;-80
2023/07/01 10:05:50;;;;;;;14.82;5.70;;;;;;;17.88;100.00;100371.47;5018370;28;20046;-80
2023/07/01 10:08:16;;;;;;;21.25;6.90;;;;;;;17.96;100.00;100373.81;5020941;28;20040;-79
2023/07/01 10:10:42;;;;;;;14.85;5.30;;;;;;;17.95;100.00;100366.69;5018778;28;20113;-78
2023/07/01 10:13:08;;;;;;;16.52;5.70;;;;;;;17.90;100.00;100367.41;5012895;28;20036;-79
2023/07/01 10:15:34;;;;;;;20.45;5.80;;;;;;;17.88;100.00;100369.56;5018953;28;20112;-78
2023/07/01 10:17:59;;;;;;;17.15;5.53;;;;;;;17.87;100.00;100361.63;5000223;28;20032;-78
2023/07/01 10:20:25;;;;;;;16.58;5.18;;;;;;;17.84;100.00;100371.09;5015819;28;20105;-78
2023/07/01 10:22:55;;;;;;;22.50;5.90;;;;;;;17.91;100.00;100363.63;5016827;28;20076;-78
2023/07/01 10:25:41;;;;;;;18.60;5.65;;;;;;;17.93;100.00;100366.94;5010658;28;20485;-78
2023/07/01 10:28:10;;;;;;;18.02;5.38;;;;;;;18.05;100.00;100377.78;4992258;28;20053;-79
2023/07/01 10:30:42;;;;;;;18.50;5.85;;;;;;;18.11;100.00;100375.97;5022174;28;20504;-79
2023/07/01 10:33:45;;;;;;;18.02;5.13;;;;;;;18.17;100.00;100370.41;5021477;28;20102;-78
2023/07/01 10:36:17;;;;;;;14.00;5.25;;;;;;;18.29;100.00;100377.69;5020634;28;20030;-77
2023/07/01 10:38:43;;;;;;;15.82;5.35;;;;;;;18.47;100.00;100373.91;5021978;28;20053;-79
2023/07/01 10:41:08;;;;;;;13.77;5.50;;;;;;;18.64;100.00;100370.16;5019688;28;20088;-79
2023/07/01 10:43:36;;;;;;;13.60;4.97;;;;;;;18.63;100.00;100367.66;5020109;28;20052;-78
2023/07/01 10:46:04;;;;;;;21.38;5.55;;;;;;;18.62;100.00;100355.94;5017185;28;20037;-79
2023/07/01 10:48:30;;;;;;;30.23;4.78;;;;;;;18.56;100.00;100346.03;5023854;28;20089;-80
2023/07/01 10:51:04;;;;;;;22.23;5.03;;;;;;;18.59;100.00;100350.97;5022315;28;20030;-80
2023/07/01 10:53:30;;;;;;;17.08;4.35;;;;;;;18.61;100.00;100348.81;5022613;28;20029;-79
2023/07/01 10:56:13;;;;;;;16.55;5.40;;;;;;;18.55;100.00;100349.00;5023683;28;20050;-79
2023/07/01 10:58:39;;;;;;;15.73;4.82;;;;;;;18.55;100.00;100347.09;5006687;28;20032;-78
2023/07/01 11:01:05;;;;;;;16.27;5.07;;;;;;;18.50;100.00;100340.72;5024288;28;20021;-78
2023/07/01 11:03:36;;;;;;;11.32;4.97;;;;;;;18.50;100.00;100349.72;5023529;28;20044;-79
2023/07/01 11:06:02;;;;;;;14.85;5.07;;;;;;;18.65;100.00;100360.06;5022849;28;20029;-79